sensor_id;sensor_type;location;lat;lon;timestamp;temperature;humidity
65864;SHT30;52639;51.180;20.460;2023-05-10T00:00:13;3.92;59.63
65864;SHT30;52639;51.180;20.460;2023-05-10T00:04:36;3.50;60.67
65864;SHT30;52639;51.180;20.460;2023-05-10T00:08:40;3.74;61.96
65864;SHT30;52639;51.180;20.460;2023-05-10T00:12:43;3.74;61.62
65864;SHT30;52639;51.180;20.460;2023-05-10T00:16:46;3.79;60.05
65864;SHT30;52639;51.180;20.460;2023-05-10T00:20:49;3.60;60.79
65864;SHT30;52639;51.180;20.460;2023-05-10T00:24:53;3.54;60.10
65864;SHT30;52639;51.180;20.460;2023-05-10T00:28:58;3.38;60.36
65864;SHT30;52639;51.180;20.460;2023-05-10T00:33:02;3.43;61.27
65864;SHT30;52639;51.180;20.460;2023-05-10T00:37:05;3.41;61.08
65864;SHT30;52639;51.180;20.460;2023-05-10T00:41:09;3.57;61.87
65864;SHT30;52639;51.180;20.460;2023-05-10T00:45:12;3.47;61.40
65864;SHT30;52639;51.180;20.460;2023-05-10T00:49:16;3.37;60.72
65864;SHT30;52639;51.180;20.460;2023-05-10T00:53:19;3.33;61.94
65864;SHT30;52639;51.180;20.460;2023-05-10T00:57:23;3.44;61.84
65864;SHT30;52639;51.180;20.460;2023-05-10T01:01:27;3.34;63.66
65864;SHT30;52639;51.180;20.460;2023-05-10T01:05:30;3.33;61.78
65864;SHT30;52639;51.180;20.460;2023-05-10T01:09:33;3.35;63.20
65864;SHT30;52639;51.180;20.460;2023-05-10T01:13:40;3.28;64.42
65864;SHT30;52639;51.180;20.460;2023-05-10T01:17:45;3.27;62.83
65864;SHT30;52639;51.180;20.460;2023-05-10T01:21:56;3.24;61.67
65864;SHT30;52639;51.180;20.460;2023-05-10T01:26:28;3.20;60.82
65864;SHT30;52639;51.180;20.460;2023-05-10T01:30:55;3.21;61.59
65864;SHT30;52639;51.180;20.460;2023-05-10T01:35:10;3.14;62.17
65864;SHT30;52639;51.180;20.460;2023-05-10T01:39:20;3.14;63.74
65864;SHT30;52639;51.180;20.460;2023-05-10T01:43:28;3.00;63.81
65864;SHT30;52639;51.180;20.460;2023-05-10T01:47:37;2.99;64.36
65864;SHT30;52639;51.180;20.460;2023-05-10T01:51:46;2.63;62.67
65864;SHT30;52639;51.180;20.460;2023-05-10T01:55:52;2.76;64.11
65864;SHT30;52639;51.180;20.460;2023-05-10T01:59:56;2.55;63.20
65864;SHT30;52639;51.180;20.460;2023-05-10T02:04:02;2.52;62.97
65864;SHT30;52639;51.180;20.460;2023-05-10T02:08:07;2.52;63.52
65864;SHT30;52639;51.180;20.460;2023-05-10T02:12:13;2.50;63.52
65864;SHT30;52639;51.180;20.460;2023-05-10T02:16:18;2.44;63.25
65864;SHT30;52639;51.180;20.460;2023-05-10T02:20:25;2.41;63.67
65864;SHT30;52639;51.180;20.460;2023-05-10T02:24:33;2.53;64.57
65864;SHT30;52639;51.180;20.460;2023-05-10T02:28:38;2.59;63.78
65864;SHT30;52639;51.180;20.460;2023-05-10T02:32:43;2.50;63.51
65864;SHT30;52639;51.180;20.460;2023-05-10T02:36:47;2.48;63.80
65864;SHT30;52639;51.180;20.460;2023-05-10T02:40:52;2.55;63.22
65864;SHT30;52639;51.180;20.460;2023-05-10T02:45:00;2.60;64.77
65864;SHT30;52639;51.180;20.460;2023-05-10T02:49:03;2.56;63.63
65864;SHT30;52639;51.180;20.460;2023-05-10T02:53:13;2.52;63.42
65864;SHT30;52639;51.180;20.460;2023-05-10T02:57:27;2.48;63.16
65864;SHT30;52639;51.180;20.460;2023-05-10T03:01:31;2.46;65.71
65864;SHT30;52639;51.180;20.460;2023-05-10T03:05:34;2.66;65.68
65864;SHT30;52639;51.180;20.460;2023-05-10T03:09:37;2.63;64.34
65864;SHT30;52639;51.180;20.460;2023-05-10T03:13:50;2.76;63.37
65864;SHT30;52639;51.180;20.460;2023-05-10T03:18:01;2.92;64.10
65864;SHT30;52639;51.180;20.460;2023-05-10T03:22:10;3.01;64.53
65864;SHT30;52639;51.180;20.460;2023-05-10T03:26:17;3.11;63.78
65864;SHT30;52639;51.180;20.460;2023-05-10T03:30:24;3.28;63.59
65864;SHT30;52639;51.180;20.460;2023-05-10T03:34:29;3.53;63.71
65864;SHT30;52639;51.180;20.460;2023-05-10T03:38:33;3.60;65.94
65864;SHT30;52639;51.180;20.460;2023-05-10T03:42:35;3.75;65.01
65864;SHT30;52639;51.180;20.460;2023-05-10T03:46:40;3.78;63.74
65864;SHT30;52639;51.180;20.460;2023-05-10T03:50:43;4.01;64.29
65864;SHT30;52639;51.180;20.460;2023-05-10T03:54:46;4.20;64.31
65864;SHT30;52639;51.180;20.460;2023-05-10T03:58:49;4.29;63.48
65864;SHT30;52639;51.180;20.460;2023-05-10T04:02:54;4.52;63.03
65864;SHT30;52639;51.180;20.460;2023-05-10T04:06:57;4.80;64.69
65864;SHT30;52639;51.180;20.460;2023-05-10T04:11:06;4.98;62.51
65864;SHT30;52639;51.180;20.460;2023-05-10T04:15:09;5.30;62.92
65864;SHT30;52639;51.180;20.460;2023-05-10T04:19:14;5.55;62.74
65864;SHT30;52639;51.180;20.460;2023-05-10T04:23:17;5.85;61.85
65864;SHT30;52639;51.180;20.460;2023-05-10T04:27:20;6.71;59.91
65864;SHT30;52639;51.180;20.460;2023-05-10T04:31:23;6.63;60.55
65864;SHT30;52639;51.180;20.460;2023-05-10T04:35:27;8.57;56.80
65864;SHT30;52639;51.180;20.460;2023-05-10T04:39:30;12.15;49.01
65864;SHT30;52639;51.180;20.460;2023-05-10T04:43:33;10.54;52.75
65864;SHT30;52639;51.180;20.460;2023-05-10T04:47:36;9.69;55.48
65864;SHT30;52639;51.180;20.460;2023-05-10T04:51:41;9.81;55.41
65864;SHT30;52639;51.180;20.460;2023-05-10T04:55:44;10.27;54.44
65864;SHT30;52639;51.180;20.460;2023-05-10T04:59:48;10.93;54.33
65864;SHT30;52639;51.180;20.460;2023-05-10T05:03:51;15.19;46.83
65864;SHT30;52639;51.180;20.460;2023-05-10T05:07:55;17.72;43.43
65864;SHT30;52639;51.180;20.460;2023-05-10T05:11:58;19.61;41.37
65864;SHT30;52639;51.180;20.460;2023-05-10T05:16:06;20.40;41.43
65864;SHT30;52639;51.180;20.460;2023-05-10T05:20:10;22.17;39.97
65864;SHT30;52639;51.180;20.460;2023-05-10T05:24:15;22.22;40.44
65864;SHT30;52639;51.180;20.460;2023-05-10T05:28:18;23.34;39.15
65864;SHT30;52639;51.180;20.460;2023-05-10T05:32:21;22.42;39.59
65864;SHT30;52639;51.180;20.460;2023-05-10T05:36:24;23.08;37.81
65864;SHT30;52639;51.180;20.460;2023-05-10T05:40:28;23.31;37.68
65864;SHT30;52639;51.180;20.460;2023-05-10T05:44:32;24.67;35.98
65864;SHT30;52639;51.180;20.460;2023-05-10T05:48:34;25.27;35.03
65864;SHT30;52639;51.180;20.460;2023-05-10T05:52:38;25.24;35.38
65864;SHT30;52639;51.180;20.460;2023-05-10T05:56:42;24.55;35.94
65864;SHT30;52639;51.180;20.460;2023-05-10T06:00:45;24.32;35.78
65864;SHT30;52639;51.180;20.460;2023-05-10T06:04:48;24.90;34.32
65864;SHT30;52639;51.180;20.460;2023-05-10T06:08:51;25.64;33.43
65864;SHT30;52639;51.180;20.460;2023-05-10T06:12:59;25.20;33.37
65864;SHT30;52639;51.180;20.460;2023-05-10T06:17:01;25.20;32.63
65864;SHT30;52639;51.180;20.460;2023-05-10T06:21:06;25.34;32.52
65864;SHT30;52639;51.180;20.460;2023-05-10T06:25:10;26.17;31.55
65864;SHT30;52639;51.180;20.460;2023-05-10T06:29:14;26.77;30.84
65864;SHT30;52639;51.180;20.460;2023-05-10T06:33:17;27.79;29.89
65864;SHT30;52639;51.180;20.460;2023-05-10T06:37:20;27.41;30.87
65864;SHT30;52639;51.180;20.460;2023-05-10T06:41:26;26.74;30.73
65864;SHT30;52639;51.180;20.460;2023-05-10T06:45:34;26.32;30.74
65864;SHT30;52639;51.180;20.460;2023-05-10T06:49:39;27.18;29.22
65864;SHT30;52639;51.180;20.460;2023-05-10T06:53:42;27.37;29.28
65864;SHT30;52639;51.180;20.460;2023-05-10T06:57:48;27.12;28.99
65864;SHT30;52639;51.180;20.460;2023-05-10T07:01:58;27.89;28.55
65864;SHT30;52639;51.180;20.460;2023-05-10T07:06:02;28.29;28.04
65864;SHT30;52639;51.180;20.460;2023-05-10T07:10:12;28.71;27.73
65864;SHT30;52639;51.180;20.460;2023-05-10T07:14:16;28.73;27.43
65864;SHT30;52639;51.180;20.460;2023-05-10T07:18:21;27.66;28.42
65864;SHT30;52639;51.180;20.460;2023-05-10T07:22:24;28.30;27.70
65864;SHT30;52639;51.180;20.460;2023-05-10T07:26:29;27.95;28.02
65864;SHT30;52639;51.180;20.460;2023-05-10T07:30:33;27.86;27.85
65864;SHT30;52639;51.180;20.460;2023-05-10T07:34:39;28.90;26.70
65864;SHT30;52639;51.180;20.460;2023-05-10T07:38:43;29.14;26.62
65864;SHT30;52639;51.180;20.460;2023-05-10T07:42:46;27.90;27.19
65864;SHT30;52639;51.180;20.460;2023-05-10T07:46:49;27.59;27.09
65864;SHT30;52639;51.180;20.460;2023-05-10T07:50:55;27.95;26.53
65864;SHT30;52639;51.180;20.460;2023-05-10T07:54:57;29.44;25.47
65864;SHT30;52639;51.180;20.460;2023-05-10T07:59:01;28.94;26.10
65864;SHT30;52639;51.180;20.460;2023-05-10T08:03:05;28.19;26.53
65864;SHT30;52639;51.180;20.460;2023-05-10T08:07:09;28.60;26.37
65864;SHT30;52639;51.180;20.460;2023-05-10T08:11:12;27.51;27.16
65864;SHT30;52639;51.180;20.460;2023-05-10T08:15:16;28.49;25.80
65864;SHT30;52639;51.180;20.460;2023-05-10T08:19:20;26.69;26.93
65864;SHT30;52639;51.180;20.460;2023-05-10T08:23:31;26.19;27.13
65864;SHT30;52639;51.180;20.460;2023-05-10T08:27:41;25.55;27.05
65864;SHT30;52639;51.180;20.460;2023-05-10T08:31:44;24.52;28.11
65864;SHT30;52639;51.180;20.460;2023-05-10T08:35:55;27.00;25.90
65864;SHT30;52639;51.180;20.460;2023-05-10T08:40:00;26.83;26.19
65864;SHT30;52639;51.180;20.460;2023-05-10T08:44:05;26.07;26.68
65864;SHT30;52639;51.180;20.460;2023-05-10T08:48:12;26.49;26.37
65864;SHT30;52639;51.180;20.460;2023-05-10T08:52:15;27.16;25.83
65864;SHT30;52639;51.180;20.460;2023-05-10T08:56:28;26.67;24.78
65864;SHT30;52639;51.180;20.460;2023-05-10T09:00:46;26.86;26.15
65864;SHT30;52639;51.180;20.460;2023-05-10T09:05:10;26.43;26.32
65864;SHT30;52639;51.180;20.460;2023-05-10T09:09:24;27.04;26.06
65864;SHT30;52639;51.180;20.460;2023-05-10T09:13:30;23.93;29.13
65864;SHT30;52639;51.180;20.460;2023-05-10T09:17:39;23.93;28.30
65864;SHT30;52639;51.180;20.460;2023-05-10T09:22:14;23.75;25.81
65864;SHT30;52639;51.180;20.460;2023-05-10T09:26:22;22.56;28.92
65864;SHT30;52639;51.180;20.460;2023-05-10T09:30:48;23.88;26.17
65864;SHT30;52639;51.180;20.460;2023-05-10T09:35:23;22.64;28.84
65864;SHT30;52639;51.180;20.460;2023-05-10T09:44:07;19.30;31.75
65864;SHT30;52639;51.180;20.460;2023-05-10T09:48:28;18.48;32.85
65864;SHT30;52639;51.180;20.460;2023-05-10T09:52:47;18.89;32.30
65864;SHT30;52639;51.180;20.460;2023-05-10T09:57:19;18.13;33.30
65864;SHT30;52639;51.180;20.460;2023-05-10T10:01:26;18.48;33.12
65864;SHT30;52639;51.180;20.460;2023-05-10T10:05:34;18.29;33.88
65864;SHT30;52639;51.180;20.460;2023-05-10T10:09:38;18.43;33.92
65864;SHT30;52639;51.180;20.460;2023-05-10T10:13:42;18.39;34.04
65864;SHT30;52639;51.180;20.460;2023-05-10T10:17:45;18.24;34.44
65864;SHT30;52639;51.180;20.460;2023-05-10T10:21:52;18.30;34.76
65864;SHT30;52639;51.180;20.460;2023-05-10T10:25:55;17.44;35.61
65864;SHT30;52639;51.180;20.460;2023-05-10T10:30:04;17.58;35.32
65864;SHT30;52639;51.180;20.460;2023-05-10T10:34:10;17.44;35.54
65864;SHT30;52639;51.180;20.460;2023-05-10T10:38:21;17.44;35.38
65864;SHT30;52639;51.180;20.460;2023-05-10T10:42:44;17.04;35.59
65864;SHT30;52639;51.180;20.460;2023-05-10T10:47:09;16.84;35.66
65864;SHT30;52639;51.180;20.460;2023-05-10T10:51:13;16.83;35.67
65864;SHT30;52639;51.180;20.460;2023-05-10T10:55:21;16.91;35.56
65864;SHT30;52639;51.180;20.460;2023-05-10T10:59:44;17.03;35.42
65864;SHT30;52639;51.180;20.460;2023-05-10T11:04:18;17.04;34.73
65864;SHT30;52639;51.180;20.460;2023-05-10T11:08:31;17.04;34.56
65864;SHT30;52639;51.180;20.460;2023-05-10T11:12:52;17.13;35.58
65864;SHT30;52639;51.180;20.460;2023-05-10T11:17:22;17.00;34.59
65864;SHT30;52639;51.180;20.460;2023-05-10T11:22:22;16.87;34.85
65864;SHT30;52639;51.180;20.460;2023-05-10T11:26:56;17.03;35.01
65864;SHT30;52639;51.180;20.460;2023-05-10T11:31:18;17.04;34.69
65864;SHT30;52639;51.180;20.460;2023-05-10T11:35:37;16.94;35.01
65864;SHT30;52639;51.180;20.460;2023-05-10T11:40:05;16.97;34.97
65864;SHT30;52639;51.180;20.460;2023-05-10T11:44:09;16.89;34.87
65864;SHT30;52639;51.180;20.460;2023-05-10T11:48:12;17.03;34.70
65864;SHT30;52639;51.180;20.460;2023-05-10T11:52:15;16.91;34.89
65864;SHT30;52639;51.180;20.460;2023-05-10T11:56:22;17.11;34.66
65864;SHT30;52639;51.180;20.460;2023-05-10T12:00:28;16.83;34.62
65864;SHT30;52639;51.180;20.460;2023-05-10T12:04:31;16.93;34.78
65864;SHT30;52639;51.180;20.460;2023-05-10T12:08:34;17.27;34.62
65864;SHT30;52639;51.180;20.460;2023-05-10T12:12:40;17.16;34.36
65864;SHT30;52639;51.180;20.460;2023-05-10T12:16:47;17.30;34.73
65864;SHT30;52639;51.180;20.460;2023-05-10T12:20:52;17.00;34.66
65864;SHT30;52639;51.180;20.460;2023-05-10T12:24:55;16.90;34.68
65864;SHT30;52639;51.180;20.460;2023-05-10T12:29:14;17.09;34.52
65864;SHT30;52639;51.180;20.460;2023-05-10T12:33:17;16.99;34.04
65864;SHT30;52639;51.180;20.460;2023-05-10T12:37:24;16.94;34.62
65864;SHT30;52639;51.180;20.460;2023-05-10T12:41:30;17.11;34.56
65864;SHT30;52639;51.180;20.460;2023-05-10T12:45:38;16.93;34.55
65864;SHT30;52639;51.180;20.460;2023-05-10T12:49:42;16.93;34.51
65864;SHT30;52639;51.180;20.460;2023-05-10T12:53:46;17.16;34.52
65864;SHT30;52639;51.180;20.460;2023-05-10T12:57:49;17.04;34.56
65864;SHT30;52639;51.180;20.460;2023-05-10T13:01:56;17.06;34.60
65864;SHT30;52639;51.180;20.460;2023-05-10T13:06:00;17.11;34.56
65864;SHT30;52639;51.180;20.460;2023-05-10T13:10:04;17.27;34.54
65864;SHT30;52639;51.180;20.460;2023-05-10T13:14:08;17.27;34.49
65864;SHT30;52639;51.180;20.460;2023-05-10T13:18:15;17.16;34.52
65864;SHT30;52639;51.180;20.460;2023-05-10T13:22:18;17.34;34.42
65864;SHT30;52639;51.180;20.460;2023-05-10T13:26:23;17.17;34.35
65864;SHT30;52639;51.180;20.460;2023-05-10T13:30:26;17.11;34.68
65864;SHT30;52639;51.180;20.460;2023-05-10T13:34:32;17.23;34.76
65864;SHT30;52639;51.180;20.460;2023-05-10T13:38:34;17.27;34.43
65864;SHT30;52639;51.180;20.460;2023-05-10T13:42:38;17.13;34.44
65864;SHT30;52639;51.180;20.460;2023-05-10T13:46:41;17.00;34.46
65864;SHT30;52639;51.180;20.460;2023-05-10T13:50:47;17.06;34.27
65864;SHT30;52639;51.180;20.460;2023-05-10T13:54:51;16.83;34.38
65864;SHT30;52639;51.180;20.460;2023-05-10T13:58:57;17.04;34.37
65864;SHT30;52639;51.180;20.460;2023-05-10T14:03:00;16.94;34.63
65864;SHT30;52639;51.180;20.460;2023-05-10T14:07:05;17.13;34.53
65864;SHT30;52639;51.180;20.460;2023-05-10T14:11:08;17.11;34.53
65864;SHT30;52639;51.180;20.460;2023-05-10T14:15:11;17.04;34.59
65864;SHT30;52639;51.180;20.460;2023-05-10T14:19:14;16.93;34.44
65864;SHT30;52639;51.180;20.460;2023-05-10T14:23:18;16.87;34.58
65864;SHT30;52639;51.180;20.460;2023-05-10T14:27:25;16.97;34.58
65864;SHT30;52639;51.180;20.460;2023-05-10T14:31:31;16.94;34.55
65864;SHT30;52639;51.180;20.460;2023-05-10T14:35:35;16.87;34.62
65864;SHT30;52639;51.180;20.460;2023-05-10T14:39:40;16.93;34.47
65864;SHT30;52639;51.180;20.460;2023-05-10T14:43:43;16.84;34.41
65864;SHT30;52639;51.180;20.460;2023-05-10T14:47:46;16.87;34.39
65864;SHT30;52639;51.180;20.460;2023-05-10T14:51:52;16.79;34.67
65864;SHT30;52639;51.180;20.460;2023-05-10T14:55:56;16.96;34.65
65864;SHT30;52639;51.180;20.460;2023-05-10T15:00:01;16.91;34.76
65864;SHT30;52639;51.180;20.460;2023-05-10T15:04:04;16.91;34.71
65864;SHT30;52639;51.180;20.460;2023-05-10T15:08:06;16.75;34.84
65864;SHT30;52639;51.180;20.460;2023-05-10T15:12:12;16.55;35.02
65864;SHT30;52639;51.180;20.460;2023-05-10T15:16:15;16.60;34.61
65864;SHT30;52639;51.180;20.460;2023-05-10T15:20:18;16.57;34.63
65864;SHT30;52639;51.180;20.460;2023-05-10T15:24:24;16.55;34.77
65864;SHT30;52639;51.180;20.460;2023-05-10T15:28:31;16.53;34.89
65864;SHT30;52639;51.180;20.460;2023-05-10T15:32:35;16.41;34.62
65864;SHT30;52639;51.180;20.460;2023-05-10T15:36:38;16.33;34.75
65864;SHT30;52639;51.180;20.460;2023-05-10T15:40:45;16.32;34.80
65864;SHT30;52639;51.180;20.460;2023-05-10T15:44:51;16.30;34.91
65864;SHT30;52639;51.180;20.460;2023-05-10T15:48:57;16.26;34.53
65864;SHT30;52639;51.180;20.460;2023-05-10T15:53:02;16.16;34.77
65864;SHT30;52639;51.180;20.460;2023-05-10T15:57:06;16.13;34.53
65864;SHT30;52639;51.180;20.460;2023-05-10T16:01:16;16.02;35.00
65864;SHT30;52639;51.180;20.460;2023-05-10T16:05:19;15.98;35.14
65864;SHT30;52639;51.180;20.460;2023-05-10T16:09:22;15.94;35.23
65864;SHT30;52639;51.180;20.460;2023-05-10T16:13:27;15.90;35.05
65864;SHT30;52639;51.180;20.460;2023-05-10T16:17:32;15.77;35.02
65864;SHT30;52639;51.180;20.460;2023-05-10T16:21:35;15.72;34.90
65864;SHT30;52639;51.180;20.460;2023-05-10T16:25:38;15.61;34.93
65864;SHT30;52639;51.180;20.460;2023-05-10T16:29:42;15.64;34.82
65864;SHT30;52639;51.180;20.460;2023-05-10T16:33:46;15.48;35.05
65864;SHT30;52639;51.180;20.460;2023-05-10T16:37:50;15.46;34.95
65864;SHT30;52639;51.180;20.460;2023-05-10T16:41:53;15.31;35.24
65864;SHT30;52639;51.180;20.460;2023-05-10T16:45:59;15.19;35.59
65864;SHT30;52639;51.180;20.460;2023-05-10T16:50:06;15.23;35.54
65864;SHT30;52639;51.180;20.460;2023-05-10T16:54:15;15.16;35.62
65864;SHT30;52639;51.180;20.460;2023-05-10T16:58:23;14.97;36.10
65864;SHT30;52639;51.180;20.460;2023-05-10T17:02:26;14.85;36.19
65864;SHT30;52639;51.180;20.460;2023-05-10T17:06:36;14.80;36.14
65864;SHT30;52639;51.180;20.460;2023-05-10T17:10:40;14.58;36.38
65864;SHT30;52639;51.180;20.460;2023-05-10T17:14:46;14.62;36.18
65864;SHT30;52639;51.180;20.460;2023-05-10T17:18:54;14.52;36.01
65864;SHT30;52639;51.180;20.460;2023-05-10T17:22:59;14.43;36.17
65864;SHT30;52639;51.180;20.460;2023-05-10T17:27:05;14.19;36.60
65864;SHT30;52639;51.180;20.460;2023-05-10T17:31:10;14.05;36.84
65864;SHT30;52639;51.180;20.460;2023-05-10T17:35:22;13.92;36.95
65864;SHT30;52639;51.180;20.460;2023-05-10T17:39:30;13.73;37.15
65864;SHT30;52639;51.180;20.460;2023-05-10T17:43:33;13.39;37.64
65864;SHT30;52639;51.180;20.460;2023-05-10T17:47:36;13.10;37.99
65864;SHT30;52639;51.180;20.460;2023-05-10T17:51:39;12.78;38.43
65864;SHT30;52639;51.180;20.460;2023-05-10T17:55:47;12.42;38.78
65864;SHT30;52639;51.180;20.460;2023-05-10T17:59:53;12.18;39.21
65864;SHT30;52639;51.180;20.460;2023-05-10T18:03:59;11.99;39.62
65864;SHT30;52639;51.180;20.460;2023-05-10T18:08:06;11.63;39.93
65864;SHT30;52639;51.180;20.460;2023-05-10T18:12:11;11.15;40.60
65864;SHT30;52639;51.180;20.460;2023-05-10T18:16:14;10.55;42.02
65864;SHT30;52639;51.180;20.460;2023-05-10T18:20:18;10.20;42.20
65864;SHT30;52639;51.180;20.460;2023-05-10T18:24:24;9.74;42.68
65864;SHT30;52639;51.180;20.460;2023-05-10T18:28:30;9.33;43.53
65864;SHT30;52639;51.180;20.460;2023-05-10T18:32:33;8.81;45.50
65864;SHT30;52639;51.180;20.460;2023-05-10T18:36:37;8.41;46.09
65864;SHT30;52639;51.180;20.460;2023-05-10T18:40:43;8.07;46.85
65864;SHT30;52639;51.180;20.460;2023-05-10T18:44:53;7.67;47.27
65864;SHT30;52639;51.180;20.460;2023-05-10T18:48:57;7.45;48.05
65864;SHT30;52639;51.180;20.460;2023-05-10T18:53:03;7.12;47.96
65864;SHT30;52639;51.180;20.460;2023-05-10T18:57:09;6.91;48.65
65864;SHT30;52639;51.180;20.460;2023-05-10T19:01:16;6.57;49.04
65864;SHT30;52639;51.180;20.460;2023-05-10T19:05:22;6.50;48.93
65864;SHT30;52639;51.180;20.460;2023-05-10T19:09:31;6.38;50.07
65864;SHT30;52639;51.180;20.460;2023-05-10T19:13:38;6.12;50.93
65864;SHT30;52639;51.180;20.460;2023-05-10T19:17:44;5.95;51.87
65864;SHT30;52639;51.180;20.460;2023-05-10T19:21:49;5.81;51.68
65864;SHT30;52639;51.180;20.460;2023-05-10T19:25:52;5.65;52.31
65864;SHT30;52639;51.180;20.460;2023-05-10T19:29:56;5.58;52.84
65864;SHT30;52639;51.180;20.460;2023-05-10T19:34:01;5.49;53.20
65864;SHT30;52639;51.180;20.460;2023-05-10T19:38:08;5.30;52.63
65864;SHT30;52639;51.180;20.460;2023-05-10T19:42:14;5.17;54.16
65864;SHT30;52639;51.180;20.460;2023-05-10T19:46:18;5.07;55.02
65864;SHT30;52639;51.180;20.460;2023-05-10T19:50:23;4.77;53.78
65864;SHT30;52639;51.180;20.460;2023-05-10T19:54:27;4.73;54.48
65864;SHT30;52639;51.180;20.460;2023-05-10T19:58:31;4.56;56.10
65864;SHT30;52639;51.180;20.460;2023-05-10T20:02:35;4.53;54.26
65864;SHT30;52639;51.180;20.460;2023-05-10T20:06:43;4.30;53.81
65864;SHT30;52639;51.180;20.460;2023-05-10T20:10:48;4.19;55.88
65864;SHT30;52639;51.180;20.460;2023-05-10T20:14:54;4.19;56.48
65864;SHT30;52639;51.180;20.460;2023-05-10T20:18:59;4.16;55.62
65864;SHT30;52639;51.180;20.460;2023-05-10T20:23:04;3.99;54.86
65864;SHT30;52639;51.180;20.460;2023-05-10T20:27:07;3.91;56.33
65864;SHT30;52639;51.180;20.460;2023-05-10T20:31:11;3.84;56.92
65864;SHT30;52639;51.180;20.460;2023-05-10T20:35:14;3.75;56.25
65864;SHT30;52639;51.180;20.460;2023-05-10T20:39:23;3.91;55.28
65864;SHT30;52639;51.180;20.460;2023-05-10T20:43:29;3.99;58.63
65864;SHT30;52639;51.180;20.460;2023-05-10T20:47:33;3.88;57.67
65864;SHT30;52639;51.180;20.460;2023-05-10T20:51:36;3.98;57.00
65864;SHT30;52639;51.180;20.460;2023-05-10T20:55:42;3.95;56.55
65864;SHT30;52639;51.180;20.460;2023-05-10T20:59:46;4.23;58.03
65864;SHT30;52639;51.180;20.460;2023-05-10T21:03:53;4.70;57.21
65864;SHT30;52639;51.180;20.460;2023-05-10T21:07:58;5.42;56.69
65864;SHT30;52639;51.180;20.460;2023-05-10T21:12:07;5.49;54.97
65864;SHT30;52639;51.180;20.460;2023-05-10T21:16:12;5.72;54.33
65864;SHT30;52639;51.180;20.460;2023-05-10T21:20:15;6.19;54.87
65864;SHT30;52639;51.180;20.460;2023-05-10T21:24:21;6.57;55.12
65864;SHT30;52639;51.180;20.460;2023-05-10T21:28:28;6.83;54.33
65864;SHT30;52639;51.180;20.460;2023-05-10T21:32:34;7.00;53.68
65864;SHT30;52639;51.180;20.460;2023-05-10T21:36:38;7.31;54.30
65864;SHT30;52639;51.180;20.460;2023-05-10T21:40:41;7.56;54.30
65864;SHT30;52639;51.180;20.460;2023-05-10T21:44:45;7.53;53.11
65864;SHT30;52639;51.180;20.460;2023-05-10T21:48:49;7.73;55.71
65864;SHT30;52639;51.180;20.460;2023-05-10T21:52:52;7.82;54.01
65864;SHT30;52639;51.180;20.460;2023-05-10T21:56:55;7.94;54.64
65864;SHT30;52639;51.180;20.460;2023-05-10T22:01:00;7.70;54.24
65864;SHT30;52639;51.180;20.460;2023-05-10T22:05:04;7.79;54.87
65864;SHT30;52639;51.180;20.460;2023-05-10T22:09:07;7.89;54.40
65864;SHT30;52639;51.180;20.460;2023-05-10T22:13:10;7.80;54.50
65864;SHT30;52639;51.180;20.460;2023-05-10T22:17:14;8.01;53.89
65864;SHT30;52639;51.180;20.460;2023-05-10T22:21:20;7.75;55.08
65864;SHT30;52639;51.180;20.460;2023-05-10T22:25:24;7.69;54.79
65864;SHT30;52639;51.180;20.460;2023-05-10T22:29:27;7.59;54.20
65864;SHT30;52639;51.180;20.460;2023-05-10T22:33:32;7.61;54.31
65864;SHT30;52639;51.180;20.460;2023-05-10T22:37:37;7.72;54.04
65864;SHT30;52639;51.180;20.460;2023-05-10T22:41:40;7.66;54.03
65864;SHT30;52639;51.180;20.460;2023-05-10T22:45:43;7.45;54.55
65864;SHT30;52639;51.180;20.460;2023-05-10T22:49:47;7.58;54.80
65864;SHT30;52639;51.180;20.460;2023-05-10T22:53:50;7.65;54.32
65864;SHT30;52639;51.180;20.460;2023-05-10T22:57:53;7.59;54.22
65864;SHT30;52639;51.180;20.460;2023-05-10T23:02:00;7.48;54.77
65864;SHT30;52639;51.180;20.460;2023-05-10T23:06:05;7.38;53.82
65864;SHT30;52639;51.180;20.460;2023-05-10T23:10:08;7.36;54.62
65864;SHT30;52639;51.180;20.460;2023-05-10T23:14:11;7.42;54.51
65864;SHT30;52639;51.180;20.460;2023-05-10T23:18:14;7.39;54.28
65864;SHT30;52639;51.180;20.460;2023-05-10T23:22:19;7.35;55.38
65864;SHT30;52639;51.180;20.460;2023-05-10T23:26:23;7.14;54.90
65864;SHT30;52639;51.180;20.460;2023-05-10T23:30:26;6.92;54.75
65864;SHT30;52639;51.180;20.460;2023-05-10T23:34:29;6.98;54.98
65864;SHT30;52639;51.180;20.460;2023-05-10T23:38:34;6.88;55.31
65864;SHT30;52639;51.180;20.460;2023-05-10T23:42:39;6.80;55.40
65864;SHT30;52639;51.180;20.460;2023-05-10T23:46:42;6.77;55.96
65864;SHT30;52639;51.180;20.460;2023-05-10T23:50:45;6.41;55.62
65864;SHT30;52639;51.180;20.460;2023-05-10T23:54:49;6.54;57.11
65864;SHT30;52639;51.180;20.460;2023-05-10T23:58:53;6.53;55.86
